• Join FlightAware (Why Join?)
  • Login
  • US Flag 
07:28PM EDT


 

Airport Tracker/Info


-or-


 

Live Flight TrackerFlight Track Log ✈ SLI2074 ✈ 22-Aug-2013 ✈ MMMX / MEX - MMLP / LAP

Flight Track Log - Related Links

Times and Time Zones

All times are in EDT time to prevent confusion due to time zone crossing. See the SLI2074 flight status page for this flight to view local times or setup timezone preferences in your user account.

Time Position Orientation Groundspeed Altitude Reporting Facility
EDT Latitude Longitude Course Direction KTS MPH feet Rate Location/Type
11:34PM 20.1982 -100.7630 296° West  Level Estimated
11:35PM 20.2521 -100.8845 295° West  Level Estimated
11:36PM 20.3058 -101.0059 295° West  Level Estimated
11:37PM 20.3594 -101.1275 295° West  Level Estimated
11:38PM 20.4130 -101.2492 295° West  Level Estimated
11:39PM 20.4664 -101.3709 295° West  Level Estimated
11:40PM 20.5198 -101.4927 295° West  Level Estimated
11:41PM 20.5731 -101.6146 295° West  Level Estimated
11:42PM 20.6264 -101.7366 295° West  Level Estimated
11:43PM 20.6795 -101.8587 295° West  Level Estimated
11:44PM 20.7325 -101.9809 295° West  Level Estimated
11:45PM 20.7855 -102.1031 295° West  Level Estimated
11:46PM 20.8384 -102.2255 295° West  Level Estimated
11:47PM 20.8912 -102.3479 295° West  Level Estimated
11:48PM 20.9439 -102.4704 295° West  Level Estimated
11:49PM 20.9965 -102.5930 295° West  Level Estimated
11:50PM 21.0490 -102.7157 295° West  Level Estimated
11:51PM 21.1014 -102.8385 295° West  Level Estimated
11:52PM 21.1538 -102.9613 295° West  Level Estimated
11:53PM 21.2060 -103.0843 295° West  Level Estimated
11:54PM 21.2582 -103.2073 294° West  Level Estimated
11:55PM 21.3103 -103.3304 294° West  Level Estimated
11:56PM 21.3623 -103.4536 294° West  Level Estimated
11:57PM 21.4142 -103.5769 294° West  Level Estimated
11:58PM 21.4660 -103.7003 294° West  Level Estimated
11:59PM 21.5177 -103.8238 294° West  Level Estimated
12:00AM 21.5693 -103.9473 294° West  Level Estimated
12:01AM 21.6209 -104.0710 294° West  Level Estimated
12:02AM 21.6723 -104.1947 294° West  Level Estimated
12:03AM 21.7237 -104.3185 294° West  Level Estimated
12:04AM 21.7749 -104.4424 294° West  Level Estimated
12:05AM 21.8261 -104.5664 294° West  Level Estimated
12:06AM 21.8772 -104.6905 294° West  Level Estimated
12:07AM 21.9282 -104.8147 294° West  Level Estimated
12:08AM 21.9790 -104.9390 294° West  Level Estimated
12:09AM 22.0299 -105.0633 294° West  Level Estimated
12:10AM 22.0805 -105.1878 294° West  Level Estimated
12:11AM 22.1312 -105.3123 294° West  Level Estimated
12:12AM 22.1817 -105.4369 294° West  Level Estimated
12:13AM 22.2321 -105.5616 294° West  Level Estimated
12:14AM 22.2824 -105.6864 294° West  Level Estimated
12:15AM 22.3326 -105.8113 294° West  Level Estimated
12:16AM 22.3828 -105.9363 293° West  Level Estimated
12:17AM 22.4328 -106.0613 293° West  Level Estimated
12:18AM 22.4827 -106.1865 293° West  Level Estimated
12:19AM 22.5326 -106.3118 293° West  Level Estimated
12:20AM 22.5823 -106.4371 293° West  Level Estimated
12:21AM 22.6320 -106.5625 293° West  Level Estimated
12:22AM 22.6815 -106.6880 293° West  Level Estimated
12:23AM 22.7310 -106.8137 293° West  Level Estimated
12:24AM 22.7803 -106.9394 293° West  Level Estimated
12:25AM 22.8296 -107.0651 293° West  Level Estimated
12:26AM 22.8788 -107.1910 293° West  Level Estimated
12:27AM 22.9278 -107.3170 293° West  Level Estimated
12:28AM 22.9768 -107.4431 293° West  Level Estimated
12:29AM 23.0257 -107.5692 293° West  Level Estimated
12:30AM 23.0744 -107.6955 293° West  Level Estimated
12:31AM 23.1231 -107.8218 293° West  Level Estimated
12:32AM 23.1716 -107.9483 293° West  Level Estimated
12:33AM 23.2201 -108.0748 293° West  Level Estimated
12:34AM 23.2684 -108.2014 293° West  Level Estimated
12:35AM 23.3167 -108.3281 293° West  Level Estimated
12:36AM 23.3648 -108.4549 292° West  Level Estimated
12:37AM 23.4129 -108.5818 292° West  Level Estimated
12:38AM 23.4608 -108.7088 292° West  Level Estimated
12:39AM 23.5087 -108.8359 292° West  Level Estimated
12:40AM 23.5564 -108.9630 292° West  Level Estimated
12:41AM 23.6041 -109.0903 292° West  Level Estimated
12:42AM 23.6516 -109.2176 292° West  Level Estimated
12:43AM 23.6990 -109.3451 292° West  Level Estimated
12:44AM 23.7464 -109.4726 292° West  Level Estimated
12:45AM 23.7936 -109.6003 292° West  Level Estimated
12:46AM 23.8407 -109.7280 292° West  Level Estimated
12:47AM 23.8877 -109.8558 292° West  Level Estimated
12:48AM 23.9346 -109.9837 292° West  Level Estimated
12:49AM 23.9814 -110.1117 292° West  Level Estimated
12:50AM 24.0281 -110.2398 292° West  Level Estimated
12:51AM 24.0727 -110.3625 292° West  Level Estimated
12:52AM 24.0727 -110.3625 49° Northeast  Level Estimated
12:53AM 24.0727 -110.3625 49° Northeast  Level Estimated
12:54AM 24.0727 -110.3625 49° Northeast  Level Estimated
12:55AM 24.0727 -110.3625 49° Northeast  Level Estimated
12:56AM 24.0727 -110.3625 49° Northeast  Level Estimated
12:57AM 24.0727 -110.3625 49° Northeast  Level Estimated
12:58AM 24.0727 -110.3625 49° Northeast  Level Estimated
12:59AM 24.0727 -110.3625 49° Northeast  Level Estimated
01:00AM 24.0727 -110.3625 49° Northeast  Level Estimated
01:01AM 24.0727 -110.3625 49° Northeast  Level Estimated
01:02AM 24.0727 -110.3625 49° Northeast  Level Estimated
01:03AM 24.0727 -110.3625 49° Northeast  Level Estimated
01:04AM 24.0727 -110.3625 49° Northeast  Level Estimated
01:05AM 24.0727 -110.3625 49° Northeast  Level Estimated
01:06AM 24.0727 -110.3625 49° Northeast  Level Estimated
01:07AM 24.0727 -110.3625 49° Northeast  Level Estimated